createdAt,value
2019-02-08T00:02:19.581Z,75.34
2019-02-08T00:04:50.302Z,75.38
2019-02-08T00:07:21.115Z,75.64
2019-02-08T00:09:52.081Z,75.88
2019-02-08T00:12:25.979Z,75.97
2019-02-08T00:14:56.902Z,76.43
2019-02-08T00:17:29.003Z,76.57
2019-02-08T00:20:00.130Z,76.63
2019-02-08T00:22:32.112Z,76.50
2019-02-08T00:25:02.550Z,76.45
2019-02-08T00:27:32.873Z,76.39
2019-02-08T00:30:03.407Z,76.23
2019-02-08T00:32:34.080Z,76.14
2019-02-08T00:35:04.882Z,76.17
2019-02-08T00:37:35.765Z,76.38
2019-02-08T00:40:08.279Z,76.20
2019-02-08T00:42:38.686Z,76.16
2019-02-08T00:45:09.362Z,76.19
2019-02-08T00:47:40.271Z,76.17
2019-02-08T00:50:14.286Z,76.29
2019-02-08T00:52:44.756Z,76.12
2019-02-08T00:55:15.193Z,75.94
2019-02-08T00:57:45.591Z,76.01
2019-02-08T01:00:17.155Z,75.90
2019-02-08T01:02:48.412Z,75.81
2019-02-08T01:05:19.358Z,75.85
2019-02-08T01:07:49.683Z,76.04
2019-02-08T01:10:28.688Z,75.92
2019-02-08T01:12:59.598Z,76.03
2019-02-08T01:15:30.902Z,76.21
2019-02-08T01:18:01.785Z,76.25
2019-02-08T01:20:32.274Z,76.25
2019-02-08T01:23:02.703Z,76.36
2019-02-08T01:25:33.589Z,76.60
2019-02-08T01:28:04.135Z,76.88
2019-02-08T01:30:35.294Z,76.81
2019-02-08T01:33:06.389Z,77.03
2019-02-08T01:35:36.873Z,77.04
2019-02-08T01:38:07.416Z,77.21
2019-02-08T01:40:38.946Z,77.33
2019-02-08T01:43:10.724Z,77.25
2019-02-08T01:45:41.117Z,77.36
2019-02-08T01:48:12.035Z,77.33
2019-02-08T01:50:42.408Z,77.55
2019-02-08T01:53:12.820Z,77.61
2019-02-08T01:55:43.212Z,77.76
2019-02-08T01:58:13.561Z,77.78
2019-02-08T02:00:45.421Z,77.86
2019-02-08T02:03:16.543Z,78.00
2019-02-08T02:05:46.946Z,78.24
2019-02-08T02:08:17.255Z,78.28
2019-02-08T02:10:48.365Z,78.63
2019-02-08T02:13:18.769Z,78.84
2019-02-08T02:15:49.095Z,79.19
2019-02-08T02:18:19.517Z,79.41
2019-02-08T02:20:49.845Z,79.24
2019-02-08T02:23:21.902Z,79.41
2019-02-08T02:25:52.902Z,79.66
2019-02-08T02:28:23.266Z,79.09
2019-02-08T02:30:54.221Z,78.71
2019-02-08T02:33:24.813Z,78.73
2019-02-08T02:35:55.267Z,78.73
2019-02-08T02:38:25.694Z,78.75
2019-02-08T02:40:55.974Z,78.61
2019-02-08T02:43:26.880Z,78.76
2019-02-08T02:45:57.648Z,79.17
2019-02-08T02:48:28.086Z,79.11
2019-02-08T02:50:58.866Z,79.06
2019-02-08T02:53:29.346Z,78.99
2019-02-08T02:55:59.673Z,78.71
2019-02-08T02:58:31.670Z,78.46
2019-02-08T03:01:01.999Z,78.52
2019-02-08T03:03:32.412Z,78.62
2019-02-08T03:06:03.166Z,78.44
2019-02-08T03:08:33.565Z,78.29
2019-02-08T03:11:03.907Z,77.91
2019-02-08T03:13:34.303Z,77.79
2019-02-08T03:16:05.194Z,77.46
2019-02-08T03:18:35.515Z,77.53
2019-02-08T03:21:08.216Z,77.05
2019-02-08T03:23:38.582Z,77.01
2019-02-08T03:26:09.003Z,77.11
2019-02-08T03:28:39.610Z,77.08
2019-02-08T03:31:10.015Z,77.13
2019-02-08T03:33:40.530Z,77.15
2019-02-08T03:36:10.873Z,77.04
2019-02-08T03:38:41.314Z,77.23
2019-02-08T03:41:11.669Z,77.65
2019-02-08T03:43:42.103Z,77.67
2019-02-08T03:46:13.749Z,78.00
2019-02-08T03:48:44.140Z,78.31
2019-02-08T03:51:14.528Z,78.30
2019-02-08T03:53:45.507Z,78.22
2019-02-08T03:56:15.904Z,78.09
2019-02-08T03:58:46.256Z,77.83
2019-02-08T04:01:17.344Z,77.70
2019-02-08T04:03:47.860Z,77.58
2019-02-08T04:06:19.207Z,77.58
2019-02-08T04:08:50.052Z,77.60
2019-02-08T04:11:20.491Z,77.81
2019-02-08T04:13:50.856Z,77.68
2019-02-08T04:16:21.300Z,77.76
2019-02-08T04:18:51.737Z,77.96
2019-02-08T04:21:22.174Z,78.23
2019-02-08T04:23:52.627Z,78.25
2019-02-08T04:26:23.076Z,78.26
2019-02-08T04:28:53.840Z,78.48
2019-02-08T04:31:24.219Z,78.45
2019-02-08T04:33:54.936Z,78.55
2019-02-08T04:36:25.344Z,78.23
2019-02-08T04:38:56.231Z,78.00
2019-02-08T04:41:26.960Z,77.79
2019-02-08T04:43:57.372Z,77.76
2019-02-08T04:46:27.784Z,77.76
2019-02-08T04:48:58.244Z,77.68
2019-02-08T04:51:29.115Z,77.96
2019-02-08T04:53:59.682Z,77.97
2019-02-08T04:56:30.118Z,78.11
2019-02-08T04:59:00.599Z,77.85
2019-02-08T05:01:30.951Z,77.41
2019-02-08T05:04:01.318Z,77.33
2019-02-08T05:06:32.316Z,77.39
2019-02-08T05:09:02.752Z,77.39
2019-02-08T05:11:33.248Z,77.22
2019-02-08T05:14:04.078Z,77.09
2019-02-08T05:16:34.418Z,77.16
2019-02-08T05:19:05.388Z,77.39
2019-02-08T05:21:36.541Z,77.43
2019-02-08T05:24:07.123Z,77.55
2019-02-08T05:26:37.801Z,77.82
2019-02-08T05:29:08.199Z,78.08
2019-02-08T05:31:40.249Z,78.42
2019-02-08T05:34:10.684Z,78.63
2019-02-08T05:36:41.057Z,78.94
2019-02-08T05:39:12.730Z,78.81
2019-02-08T05:41:43.238Z,78.85
2019-02-08T05:44:15.590Z,78.65
2019-02-08T05:46:46.034Z,78.70
2019-02-08T05:49:22.329Z,78.76
2019-02-08T05:51:52.956Z,78.92
2019-02-08T05:54:24.215Z,78.97
2019-02-08T05:56:54.655Z,79.03
2019-02-08T05:59:25.708Z,79.01
2019-02-08T06:01:58.743Z,78.84
2019-02-08T06:04:29.965Z,78.78
2019-02-08T06:07:00.893Z,78.69
2019-02-08T06:09:31.862Z,78.37
2019-02-08T06:12:02.228Z,78.16
2019-02-08T06:14:32.924Z,77.94
2019-02-08T06:17:03.668Z,77.95
2019-02-08T06:19:34.094Z,78.01
2019-02-08T06:22:05.272Z,77.96
2019-02-08T06:24:35.770Z,77.95
2019-02-08T06:27:06.917Z,77.97
2019-02-08T06:29:39.574Z,78.00
2019-02-08T06:32:10.260Z,78.00
2019-02-08T06:34:41.422Z,78.23
2019-02-08T06:37:11.881Z,78.08
2019-02-08T06:39:44.200Z,77.97
2019-02-08T06:42:14.646Z,77.93
2019-02-08T06:44:44.945Z,77.77
2019-02-08T06:47:15.421Z,77.53
2019-02-08T06:49:45.873Z,77.45
2019-02-08T06:52:16.372Z,77.18
2019-02-08T06:54:46.933Z,77.10
2019-02-08T06:57:44.186Z,77.08
2019-02-08T07:00:34.156Z,75.99
2019-02-08T07:03:21.883Z,75.38
2019-02-08T07:06:09.898Z,74.06
2019-02-08T07:08:59.057Z,73.60
2019-02-08T07:11:45.416Z,71.25
2019-02-08T07:14:50.609Z,71.09
2019-02-08T07:17:33.045Z,71.20
2019-02-08T07:20:37.797Z,69.81
2019-02-08T07:23:36.534Z,68.20
2019-02-08T07:26:38.342Z,65.74
2019-02-08T07:29:24.188Z,66.17
2019-02-08T07:32:25.509Z,63.63
2019-02-08T07:35:55.340Z,63.22
2019-02-08T07:38:54.137Z,61.99
2019-02-08T07:41:38.629Z,62.96
2019-02-08T07:44:27.964Z,63.14
2019-02-08T07:47:21.712Z,63.20
2019-02-08T07:50:05.767Z,62.65
2019-02-08T07:53:04.343Z,61.28
2019-02-08T07:55:41.747Z,60.96
2019-02-08T07:58:24.695Z,59.91
2019-02-08T08:01:06.185Z,58.77
2019-02-08T08:04:04.727Z,56.94
2019-02-08T08:06:53.947Z,56.19
2019-02-08T08:09:40.267Z,55.36
2019-02-08T08:12:17.325Z,55.19
2019-02-08T08:15:13.239Z,55.18
2019-02-08T08:18:02.279Z,54.85
2019-02-08T08:20:45.346Z,54.47
2019-02-08T08:23:27.478Z,52.71
2019-02-08T08:26:34.069Z,51.82
2019-02-08T08:29:24.842Z,51.39
2019-02-08T08:32:25.729Z,49.99
2019-02-08T08:35:28.821Z,49.60
2019-02-08T08:38:32.622Z,49.65
2019-02-08T08:41:36.672Z,48.91
2019-02-08T08:44:49.403Z,49.69
2019-02-08T08:48:04.651Z,49.67
2019-02-08T08:51:29.558Z,49.34
2019-02-08T08:54:34.690Z,48.39
2019-02-08T08:57:49.499Z,46.15
2019-02-08T09:00:54.299Z,46.02
2019-02-08T09:04:03.240Z,47.64
2019-02-08T09:07:00.336Z,48.48
2019-02-08T09:10:26.454Z,47.38
2019-02-08T09:13:35.577Z,48.10
2019-02-08T09:16:33.348Z,47.23
2019-02-08T09:19:44.643Z,45.32
2019-02-08T09:23:25.427Z,46.87
2019-02-08T09:26:36.010Z,46.78
2019-02-08T09:29:31.055Z,47.14
2019-02-08T09:32:47.711Z,47.01
2019-02-08T09:36:13.848Z,48.14
2019-02-08T09:39:33.159Z,47.69
2019-02-08T09:42:40.207Z,49.08
2019-02-08T09:45:51.916Z,48.84
2019-02-08T09:48:52.508Z,49.76
2019-02-08T09:52:00.372Z,51.15
2019-02-08T09:55:24.077Z,52.21
2019-02-08T09:58:44.643Z,52.94
2019-02-08T10:01:47.878Z,52.64
2019-02-08T10:05:13.507Z,53.86
2019-02-08T10:08:37.658Z,52.74
2019-02-08T10:11:54.557Z,52.45
2019-02-08T10:15:02.286Z,53.50
2019-02-08T10:18:01.727Z,53.61
2019-02-08T10:21:14.160Z,54.64
2019-02-08T10:24:37.482Z,53.76
2019-02-08T10:27:50.764Z,54.25
2019-02-08T10:31:16.978Z,54.66
2019-02-08T10:34:17.681Z,53.73
2019-02-08T10:37:32.700Z,54.52
2019-02-08T10:40:37.737Z,53.61
2019-02-08T10:43:56.514Z,53.63
2019-02-08T10:47:01.621Z,55.22
2019-02-08T10:50:16.366Z,55.39
2019-02-08T10:53:29.035Z,54.72
2019-02-08T10:56:38.899Z,54.29
2019-02-08T10:59:43.992Z,53.27
2019-02-08T11:03:08.962Z,52.22
2019-02-08T11:06:32.228Z,51.58
2019-02-08T11:09:38.257Z,51.87
2019-02-08T11:12:43.333Z,52.29
2019-02-08T11:15:45.566Z,51.48
2019-02-08T11:18:57.995Z,50.63
2019-02-08T11:21:28.772Z,51.02
2019-02-08T11:23:59.634Z,50.92
2019-02-08T11:26:29.961Z,50.65
2019-02-08T11:29:00.420Z,48.80
2019-02-08T11:31:30.726Z,49.82
2019-02-08T11:34:01.551Z,50.36
2019-02-08T11:36:32.046Z,50.47
2019-02-08T11:39:03.333Z,51.13
2019-02-08T11:41:33.741Z,51.59
2019-02-08T11:44:04.216Z,52.51
2019-02-08T11:46:35.579Z,52.47
2019-02-08T11:49:06.717Z,52.39
2019-02-08T11:51:37.030Z,52.55
2019-02-08T11:54:08.841Z,52.56
2019-02-08T12:03:34.836Z,50.66
2019-02-08T12:06:07.381Z,50.94
2019-02-08T12:08:37.794Z,50.30
2019-02-08T12:11:08.191Z,50.08
2019-02-08T12:13:39.075Z,49.64
2019-02-08T12:16:10.073Z,51.27
2019-02-08T12:18:40.629Z,52.13
2019-02-08T12:21:15.270Z,50.97
2019-02-08T12:23:45.667Z,51.60
2019-02-08T12:26:16.135Z,51.20
2019-02-08T12:28:46.638Z,52.95
2019-02-08T12:31:17.502Z,52.88
2019-02-08T12:33:47.887Z,53.14
2019-02-08T12:36:18.333Z,53.16
2019-02-08T12:38:48.748Z,53.01
2019-02-08T12:41:19.243Z,54.49
2019-02-08T12:43:50.145Z,54.16
2019-02-08T12:46:21.071Z,54.43
2019-02-08T12:48:51.942Z,54.91
2019-02-08T12:51:22.347Z,54.82
2019-02-08T12:53:52.695Z,55.23
2019-02-08T12:56:24.024Z,55.95
2019-02-08T12:58:54.396Z,55.04
2019-02-08T13:01:24.831Z,54.03
2019-02-08T13:03:55.353Z,54.75
2019-02-08T13:06:26.115Z,54.25
2019-02-08T13:08:56.562Z,53.72
2019-02-08T13:11:27.059Z,53.38
2019-02-08T13:13:57.440Z,53.72
2019-02-08T13:16:27.855Z,53.48
2019-02-08T13:18:59.278Z,53.61
2019-02-08T13:21:29.863Z,53.91
2019-02-08T13:24:00.260Z,53.29
2019-02-08T13:26:30.706Z,53.48
2019-02-08T13:29:01.312Z,53.64
2019-02-08T13:31:31.715Z,52.86
2019-02-08T13:34:02.047Z,52.98
2019-02-08T13:36:32.463Z,52.96
2019-02-08T13:39:03.558Z,52.83
2019-02-08T13:41:33.920Z,52.31
2019-02-08T13:44:04.355Z,52.13
2019-02-08T13:46:34.662Z,52.70
2019-02-08T13:49:05.261Z,51.87
2019-02-08T13:51:35.685Z,51.74
2019-02-08T13:54:07.117Z,52.21
2019-02-08T13:56:37.449Z,51.92
2019-02-08T13:59:07.875Z,51.41
2019-02-08T14:01:38.663Z,51.75
2019-02-08T14:04:08.999Z,52.76
2019-02-08T14:06:39.408Z,53.47
2019-02-08T14:09:10.784Z,53.11
2019-02-08T14:11:41.703Z,52.75
2019-02-08T14:14:12.067Z,52.52
2019-02-08T14:16:42.523Z,52.11
2019-02-08T14:19:13.776Z,51.99
2019-02-08T14:21:44.184Z,51.94
2019-02-08T14:24:16.216Z,52.38
2019-02-08T14:26:47.111Z,52.20
2019-02-08T14:29:17.893Z,52.22
2019-02-08T14:31:48.277Z,52.09
2019-02-08T14:34:18.666Z,51.95
2019-02-08T14:36:49.081Z,52.02
2019-02-08T14:39:19.476Z,52.47
2019-02-08T14:41:49.989Z,52.95
2019-02-08T14:44:20.989Z,53.48
2019-02-08T14:46:51.412Z,53.65
2019-02-08T14:49:23.734Z,53.69
2019-02-08T14:51:54.217Z,53.73
2019-02-08T14:54:24.689Z,53.89
2019-02-08T14:56:55.051Z,53.95
2019-02-08T14:59:25.391Z,54.01
2019-02-08T15:01:55.796Z,54.18
2019-02-08T15:04:26.717Z,54.47
2019-02-08T15:06:57.164Z,54.37
2019-02-08T15:09:27.485Z,54.57
2019-02-08T15:11:57.830Z,54.73
2019-02-08T15:14:28.271Z,55.26
2019-02-08T15:16:58.739Z,55.59
2019-02-08T15:19:29.216Z,55.50
2019-02-08T15:21:59.632Z,55.75
2019-02-08T15:24:31.098Z,55.87
2019-02-08T15:27:01.391Z,56.41
2019-02-08T15:29:31.808Z,56.69
2019-02-08T15:32:02.517Z,56.76
2019-02-08T15:34:33.372Z,56.93
2019-02-08T15:37:03.783Z,57.48
2019-02-08T15:39:34.241Z,57.84
2019-02-08T15:42:07.217Z,58.19
2019-02-08T15:44:37.637Z,58.43
2019-02-08T15:47:08.645Z,58.67
2019-02-08T15:49:40.555Z,58.95
2019-02-08T15:52:10.964Z,59.17
2019-02-08T15:54:42.485Z,59.44
2019-02-08T15:57:13.304Z,59.28
2019-02-08T15:59:46.519Z,59.91
2019-02-08T16:02:21.561Z,59.95
2019-02-08T16:04:51.973Z,60.00
2019-02-08T16:07:22.655Z,60.34
2019-02-08T16:09:53.126Z,59.83
2019-02-08T16:12:23.561Z,59.96
2019-02-08T16:14:53.932Z,59.70
2019-02-08T16:17:24.468Z,59.51
2019-02-08T16:19:54.847Z,59.63
2019-02-08T16:22:25.726Z,59.93
2019-02-08T16:24:56.049Z,59.86
2019-02-08T16:27:26.434Z,59.98
2019-02-08T16:29:56.849Z,60.17
2019-02-08T16:32:27.392Z,60.54
2019-02-08T16:34:57.793Z,60.58
2019-02-08T16:37:31.009Z,60.93
2019-02-08T16:40:01.403Z,60.98
2019-02-08T16:42:31.791Z,61.12
2019-02-08T16:45:04.379Z,61.69
2019-02-08T16:47:34.703Z,62.32
2019-02-08T16:50:07.324Z,62.94
2019-02-08T16:52:38.866Z,63.26
2019-02-08T16:55:13.139Z,64.08
2019-02-08T16:57:48.092Z,64.60
2019-02-08T17:00:27.915Z,65.00
2019-02-08T17:02:59.115Z,65.37
2019-02-08T17:05:34.101Z,65.76
2019-02-08T17:08:04.950Z,65.98
2019-02-08T17:10:36.492Z,66.10
2019-02-08T17:13:07.173Z,66.35
2019-02-08T17:15:37.757Z,66.26
2019-02-08T17:18:08.593Z,66.57
2019-02-08T17:20:43.744Z,66.61
2019-02-08T17:23:14.224Z,66.86
2019-02-08T17:25:44.647Z,66.57
2019-02-08T17:28:15.039Z,66.30
2019-02-08T17:30:45.392Z,66.08
2019-02-08T17:33:18.250Z,65.98
2019-02-08T17:35:48.636Z,65.90
2019-02-08T17:38:18.958Z,65.55
2019-02-08T17:40:50.252Z,65.34
2019-02-08T17:43:21.199Z,65.15
2019-02-08T17:45:51.651Z,65.07
2019-02-08T17:48:22.231Z,65.01
2019-02-08T17:50:52.675Z,64.81
2019-02-08T17:53:23.028Z,64.82
2019-02-08T17:55:53.807Z,64.70
2019-02-08T17:58:24.190Z,64.85
2019-02-08T18:00:59.788Z,64.83
2019-02-08T18:03:30.162Z,64.79
2019-02-08T18:06:00.672Z,64.91
2019-02-08T18:08:31.102Z,64.68
2019-02-08T18:11:01.424Z,64.52
2019-02-08T18:13:32.254Z,64.42
2019-02-08T18:16:03.194Z,64.55
2019-02-08T18:18:40.957Z,64.67
2019-02-08T18:21:13.807Z,65.01
2019-02-08T18:23:44.115Z,65.09
2019-02-08T18:26:14.943Z,65.51
2019-02-08T18:28:45.690Z,65.78
2019-02-08T18:31:17.295Z,65.92
2019-02-08T18:33:48.376Z,66.27
2019-02-08T18:36:18.688Z,66.46
2019-02-08T18:38:49.069Z,66.85
2019-02-08T18:41:19.963Z,66.92
2019-02-08T18:43:50.842Z,67.20
2019-02-08T18:46:21.250Z,67.48
2019-02-08T18:48:51.691Z,67.75
2019-02-08T18:51:22.396Z,67.62
2019-02-08T18:53:52.779Z,67.71
2019-02-08T18:56:23.099Z,67.98
2019-02-08T18:58:56.542Z,68.16
2019-02-08T19:01:27.334Z,68.01
2019-02-08T19:03:57.844Z,68.32
2019-02-08T19:06:28.767Z,68.27
2019-02-08T19:08:59.192Z,68.21
2019-02-08T19:11:29.512Z,68.44
2019-02-08T19:13:59.988Z,68.54
2019-02-08T19:16:30.563Z,68.62
2019-02-08T19:19:01.039Z,68.55
2019-02-08T19:21:31.397Z,68.51
2019-02-08T19:24:01.833Z,68.55
2019-02-08T19:26:32.246Z,68.53
2019-02-08T19:29:02.698Z,68.30
2019-02-08T19:31:33.112Z,68.58
2019-02-08T19:34:03.665Z,68.37
2019-02-08T19:36:34.654Z,68.19
2019-02-08T19:39:11.220Z,68.40
2019-02-08T19:41:39.158Z,68.23
2019-02-08T19:44:22.116Z,68.22
2019-02-08T19:47:16.946Z,68.29
2019-02-08T19:50:05.936Z,68.27
2019-02-08T19:52:49.303Z,68.11
2019-02-08T19:55:35.487Z,68.05
2019-02-08T19:58:06.771Z,67.96
2019-02-08T20:00:37.671Z,67.90
2019-02-08T20:03:10.921Z,67.55
2019-02-08T20:06:23.478Z,67.44
2019-02-08T20:09:19.064Z,66.96
2019-02-08T20:12:16.893Z,66.81
2019-02-08T20:15:07.500Z,66.88
2019-02-08T20:17:54.485Z,66.73
2019-02-08T20:20:31.851Z,66.78
2019-02-08T20:23:15.335Z,66.95
2019-02-08T20:25:47.953Z,66.64
2019-02-08T20:28:21.035Z,66.50
2019-02-08T20:30:53.677Z,66.73
2019-02-08T20:33:25.628Z,66.41
2019-02-08T20:35:56.064Z,66.30
2019-02-08T20:38:26.997Z,66.52
2019-02-08T20:40:57.356Z,66.10
2019-02-08T20:43:28.195Z,66.17
2019-02-08T20:46:00.554Z,66.12
2019-02-08T20:48:33.258Z,66.40
2019-02-08T20:51:03.681Z,66.26
2019-02-08T20:53:34.867Z,66.47
2019-02-08T20:56:07.947Z,66.27
2019-02-08T20:58:39.476Z,66.58
2019-02-08T21:01:10.018Z,66.45
2019-02-08T21:03:40.692Z,66.36
2019-02-08T21:06:18.425Z,66.47
2019-02-08T21:08:51.557Z,66.40
2019-02-08T21:11:23.747Z,66.33
2019-02-08T21:13:54.197Z,66.34
2019-02-08T21:16:24.519Z,66.41
2019-02-08T21:18:55.004Z,66.39
2019-02-08T21:21:25.442Z,66.38
2019-02-08T21:23:55.830Z,66.29
2019-02-08T21:26:26.145Z,66.51
2019-02-08T21:29:07.210Z,66.11
2019-02-08T21:31:39.593Z,66.27
2019-02-08T21:34:10.067Z,66.29
2019-02-08T21:36:41.730Z,66.17
2019-02-08T21:39:12.312Z,66.47
2019-02-08T21:41:42.695Z,66.48
2019-02-08T21:44:13.373Z,66.43
2019-02-08T21:46:45.309Z,66.41
2019-02-08T21:49:15.710Z,65.94
2019-02-08T21:51:49.039Z,65.83
2019-02-08T21:54:19.576Z,65.51
2019-02-08T21:56:49.951Z,65.42
2019-02-08T21:59:20.805Z,65.37
2019-02-08T22:01:51.252Z,65.25
2019-02-08T22:04:22.199Z,65.40
2019-02-08T22:06:53.130Z,65.58
2019-02-08T22:09:25.976Z,65.54
2019-02-08T22:11:57.284Z,65.48
2019-02-08T22:14:28.561Z,65.71
2019-02-08T22:17:00.622Z,65.57
2019-02-08T22:19:31.312Z,65.71
2019-02-08T22:22:02.844Z,65.93
2019-02-08T22:24:36.113Z,65.88
2019-02-08T22:27:06.766Z,65.74
2019-02-08T22:29:39.875Z,65.55
2019-02-08T22:32:10.804Z,64.95
2019-02-08T22:34:41.463Z,64.74
2019-02-08T22:37:11.924Z,64.31
2019-02-08T22:39:42.335Z,63.95
2019-02-08T22:42:13.297Z,63.78
2019-02-08T22:44:43.633Z,63.74
2019-02-08T22:47:14.886Z,63.50
2019-02-08T22:49:45.636Z,63.21
2019-02-08T22:52:16.767Z,62.50
2019-02-08T22:54:48.980Z,61.99
2019-02-08T22:57:19.602Z,61.51
2019-02-08T22:59:51.695Z,61.10
2019-02-08T23:02:24.333Z,60.70
2019-02-08T23:04:54.737Z,60.48
2019-02-08T23:07:25.125Z,60.30
2019-02-08T23:10:00.534Z,60.33
2019-02-08T23:12:31.287Z,60.40
2019-02-08T23:15:02.165Z,60.60
2019-02-08T23:17:42.591Z,60.55
2019-02-08T23:20:13.570Z,60.55
2019-02-08T23:22:44.321Z,60.82
2019-02-08T23:25:15.118Z,61.03
2019-02-08T23:27:45.751Z,60.88
2019-02-08T23:30:16.206Z,60.84
2019-02-08T23:32:47.104Z,60.93
2019-02-08T23:35:21.005Z,60.95
2019-02-08T23:37:51.457Z,60.53
2019-02-08T23:40:22.940Z,60.58
2019-02-08T23:42:53.707Z,60.57
2019-02-08T23:45:24.119Z,60.59
2019-02-08T23:47:54.521Z,60.58
2019-02-08T23:50:24.967Z,60.62
2019-02-08T23:52:55.820Z,60.59
2019-02-08T23:55:26.525Z,60.58
2019-02-08T23:57:57.073Z,60.81
